Garcia Miguel — CUGT9 — position and weather

sailwx.info

Track history (hours):
 
Tides and Currents Weather Stations Pressure Air Temp Water Temp Dewpoint Dewpoint Depression Visibility Wind Speed Wind Dir Waves Ship Positions

Garcia Miguel

Last reported at 2014-Nov-10 07:14 UTC. Time now 2014-Nov-27 11:52 UTC.
Position N 37°39' W 009°24'.
Warning: this ship's position is 17 days out of date.

Length 20 m.

Type: Fishing. MMSI: 263500286.

Date/timePositionNaut miles runAvg speedWind from/ knotsBaromVisibWave heightAir tempDewpointWater temp
2014-Nov-10 07:14N 37°39' W 009°24'2 0.1
2014-Nov-09 17:11N 37°39' W 009°26'5 7.6
2014-Nov-09 16:33N 37°44' W 009°25'4 4.4
2014-Nov-09 15:32N 37°48' W 009°25'5 5.0
2014-Nov-09 14:32N 37°46' W 009°30'11 2.4
2014-Nov-09 10:08N 37°37' W 009°22'3 5.8
2014-Nov-09 09:33N 37°40' W 009°20'6 6.4
2014-Nov-09 08:33N 37°45' W 009°15'6 5.6
2014-Nov-09 07:33N 37°50' W 009°13'3 3.0
2014-Nov-09 06:33N 37°53' W 009°13'2 0.5
2014-Nov-09 02:33N 37°55' W 009°14'6 5.9
2014-Nov-09 01:33N 37°49' W 009°14'6 5.8
2014-Nov-09 00:33N 37°44' W 009°18'6 6.4
2014-Nov-08 23:33N 37°39' W 009°22'7 3.4
2014-Nov-08 21:31N 37°42' W 009°30'8 7.8
2014-Nov-08 20:33N 37°49' W 009°31'6 5.6
2014-Nov-08 19:30N 37°55' W 009°28'5 5.3
2014-Nov-08 18:32N 37°53' W 009°22'4 4.6
2014-Nov-08 17:33N 37°52' W 009°16'5 4.9
2014-Nov-08 16:33N 37°50' W 009°22'5 4.9
2014-Nov-08 15:33N 37°46' W 009°24'1 1.1
2014-Nov-08 14:33N 37°46' W 009°25'6 5.7
2014-Nov-08 13:33N 37°40' W 009°27'5 2.5
2014-Nov-08 11:26N 37°37' W 009°22'4 4.9
2014-Nov-08 10:33N 37°41' W 009°21'4 3.8
2014-Nov-08 09:33N 37°44' W 009°18'6 5.9
2014-Nov-08 08:33N 37°49' W 009°13'5 5.1
2014-Nov-08 07:33N 37°54' W 009°13'4 4.2
2014-Nov-08 06:33N 37°58' W 009°14'3 0.5
2014-Nov-08 01:33N 37°60' W 009°16'4 3.6
2014-Nov-08 00:33N 37°56' W 009°16'7 6.9
2014-Nov-07 23:33N 37°50' W 009°18'7 7.1
2014-Nov-07 22:33N 37°44' W 009°22'6 4.5
2014-Nov-07 21:10N 37°39' W 009°28'5 7.7
2014-Nov-07 20:32N 37°44' W 009°28'8 7.9
2014-Nov-07 19:33N 37°52' W 009°27'8 7.7
2014-Nov-07 18:33N 37°60' W 009°26'7 6.5
2014-Nov-07 17:33N 38°03' W 009°19'7 6.8
2014-Nov-07 16:33N 38°02' W 009°10'5 4.9
2014-Nov-07 15:33N 37°58' W 009°10'5 4.9
2014-Nov-07 14:33N 37°53' W 009°13'3 3.1
2014-Nov-07 13:33N 37°52' W 009°17'5 4.9
2014-Nov-07 12:33N 37°48' W 009°19'4 4.3
2014-Nov-07 11:33N 37°44' W 009°16'5 4.6
2014-Nov-07 10:33N 37°48' W 009°13'5 5.4
2014-Nov-07 09:33N 37°53' W 009°12'3 3.2
2014-Nov-07 08:33N 37°56' W 009°12'6 5.9
2014-Nov-07 07:33N 38°02' W 009°11'7 6.8
2014-Nov-07 06:33N 38°09' W 009°12'4 4.4
2014-Nov-07 05:33N 38°11' W 009°07'5 0.9
2014-Nov-07 00:33N 38°11' W 009°13'4 3.5
2014-Nov-06 23:33N 38°08' W 009°15'7 6.9
2014-Nov-06 22:33N 38°01' W 009°16'7 6.7
2014-Nov-06 21:33N 37°55' W 009°16'6 6.5
2014-Nov-06 20:33N 37°48' W 009°17'6 5.8
2014-Nov-06 19:33N 37°53' W 009°20'8 7.7
2014-Nov-06 18:33N 38°01' W 009°20'7 7.5
2014-Nov-06 17:33N 38°08' W 009°19'7 7.1
2014-Nov-06 16:32N 38°15' W 009°22'  
Track history (hours):
 
Tides and Currents Weather Stations Pressure Air Temp Water Temp Dewpoint Dewpoint Depression Visibility Wind Speed Wind Dir Waves Ship Positions

Garcia Miguel

Last reported at 2014-Nov-10 07:14 UTC. Time now 2014-Nov-27 11:52 UTC.
Position N 37°39' W 009°24'.
Warning: this ship's position is 17 days out of date.

Length 20 m.

Type: Fishing. MMSI: 263500286.

Date/timePositionNaut miles runAvg speedWind from/ knotsBaromVisibWave heightAir tempDewpointWater temp
2014-Nov-10 07:14N 37°39' W 009°24'2 0.1
2014-Nov-09 17:11N 37°39' W 009°26'5 7.6
2014-Nov-09 16:33N 37°44' W 009°25'4 4.4
2014-Nov-09 15:32N 37°48' W 009°25'5 5.0
2014-Nov-09 14:32N 37°46' W 009°30'11 2.4
2014-Nov-09 10:08N 37°37' W 009°22'3 5.8
2014-Nov-09 09:33N 37°40' W 009°20'6 6.4
2014-Nov-09 08:33N 37°45' W 009°15'6 5.6
2014-Nov-09 07:33N 37°50' W 009°13'3 3.0
2014-Nov-09 06:33N 37°53' W 009°13'2 0.5
2014-Nov-09 02:33N 37°55' W 009°14'6 5.9
2014-Nov-09 01:33N 37°49' W 009°14'6 5.8
2014-Nov-09 00:33N 37°44' W 009°18'6 6.4
2014-Nov-08 23:33N 37°39' W 009°22'7 3.4
2014-Nov-08 21:31N 37°42' W 009°30'8 7.8
2014-Nov-08 20:33N 37°49' W 009°31'6 5.6
2014-Nov-08 19:30N 37°55' W 009°28'5 5.3
2014-Nov-08 18:32N 37°53' W 009°22'4 4.6
2014-Nov-08 17:33N 37°52' W 009°16'5 4.9
2014-Nov-08 16:33N 37°50' W 009°22'5 4.9
2014-Nov-08 15:33N 37°46' W 009°24'1 1.1
2014-Nov-08 14:33N 37°46' W 009°25'6 5.7
2014-Nov-08 13:33N 37°40' W 009°27'5 2.5
2014-Nov-08 11:26N 37°37' W 009°22'4 4.9
2014-Nov-08 10:33N 37°41' W 009°21'4 3.8
2014-Nov-08 09:33N 37°44' W 009°18'6 5.9
2014-Nov-08 08:33N 37°49' W 009°13'5 5.1
2014-Nov-08 07:33N 37°54' W 009°13'4 4.2
2014-Nov-08 06:33N 37°58' W 009°14'3 0.5
2014-Nov-08 01:33N 37°60' W 009°16'4 3.6
2014-Nov-08 00:33N 37°56' W 009°16'7 6.9
2014-Nov-07 23:33N 37°50' W 009°18'7 7.1
2014-Nov-07 22:33N 37°44' W 009°22'6 4.5
2014-Nov-07 21:10N 37°39' W 009°28'5 7.7
2014-Nov-07 20:32N 37°44' W 009°28'8 7.9
2014-Nov-07 19:33N 37°52' W 009°27'8 7.7
2014-Nov-07 18:33N 37°60' W 009°26'7 6.5
2014-Nov-07 17:33N 38°03' W 009°19'7 6.8
2014-Nov-07 16:33N 38°02' W 009°10'5 4.9
2014-Nov-07 15:33N 37°58' W 009°10'5 4.9
2014-Nov-07 14:33N 37°53' W 009°13'3 3.1
2014-Nov-07 13:33N 37°52' W 009°17'5 4.9
2014-Nov-07 12:33N 37°48' W 009°19'4 4.3
2014-Nov-07 11:33N 37°44' W 009°16'5 4.6
2014-Nov-07 10:33N 37°48' W 009°13'5 5.4
2014-Nov-07 09:33N 37°53' W 009°12'3 3.2
2014-Nov-07 08:33N 37°56' W 009°12'6 5.9
2014-Nov-07 07:33N 38°02' W 009°11'7 6.8
2014-Nov-07 06:33N 38°09' W 009°12'4 4.4
2014-Nov-07 05:33N 38°11' W 009°07'5 0.9
2014-Nov-07 00:33N 38°11' W 009°13'4 3.5
2014-Nov-06 23:33N 38°08' W 009°15'7 6.9
2014-Nov-06 22:33N 38°01' W 009°16'7 6.7
2014-Nov-06 21:33N 37°55' W 009°16'6 6.5
2014-Nov-06 20:33N 37°48' W 009°17'6 5.8
2014-Nov-06 19:33N 37°53' W 009°20'8 7.7
2014-Nov-06 18:33N 38°01' W 009°20'7 7.5
2014-Nov-06 17:33N 38°08' W 009°19'7 7.1
2014-Nov-06 16:32N 38°15' W 009°22'  

Dump ship's entire track history